Date,TemperatureHighF,TemperatureAvgF,TemperatureLowF,DewpointHighF,DewpointAvgF,DewpointLowF,HumidityHigh,HumidityAvg,HumidityLow,PressureMaxIn,PressureMinIn,WindSpeedMaxMPH,WindSpeedAvgMPH,GustSpeedMaxMPH,PrecipitationSumIn
2014-1-1,30.0,23.6,20.0,21.0,3.6,-12.0,91,48,18,0.00,40.00,17,10,40,0.00
2014-1-2,42.0,24.3,7.0,8.0,-3.1,-17.0,54,31,15,0.00,40.00,7,4,15,0.00
2014-1-3,43.0,22.8,9.0,9.0,3.6,0.0,70,47,21,0.00,40.00,8,5,20,0.00
2014-1-8,32.0,18.9,5.0,17.0,9.9,2.0,93,69,44,0.00,40.00,9,4,14,0.00
2014-1-9,22.0,13.0,1.0,14.0,7.8,-4.0,91,80,57,0.00,40.00,10,5,19,0.01
2014-1-10,23.0,16.7,6.0,14.0,8.0,1.0,90,69,47,0.00,40.00,18,9,35,0.00
2014-1-11,41.0,25.9,11.0,13.0,9.7,2.0,67,51,29,0.00,40.00,12,6,23,0.00
2014-1-12,28.0,19.5,9.0,16.0,7.1,-3.0,87,58,41,0.00,40.00,18,11,41,0.00
2014-1-13,32.0,18.7,5.0,6.0,-0.2,-5.0,65,45,31,0.00,40.00,12,8,36,0.00
2014-1-14,27.0,21.5,16.0,4.0,1.8,-1.0,49,42,34,0.00,40.00,19,10,46,0.00
2014-1-15,38.0,26.7,15.0,7.0,1.5,-6.0,57,35,19,0.00,40.00,15,8,30,0.00
2014-1-16,36.0,22.6,6.0,1.0,-3.4,-9.0,61,34,17,0.00,40.00,14,8,30,0.00
2014-1-17,35.0,23.3,13.0,9.0,3.3,-2.0,58,42,32,0.00,40.00,13,7,24,0.00
2014-1-18,42.0,26.1,11.0,9.0,3.5,-2.0,63,40,21,0.00,40.00,8,5,12,0.00
2014-1-19,40.0,26.1,9.0,9.0,5.2,-1.0,71,42,27,0.00,40.00,11,4,20,0.00
2014-1-20,37.0,23.9,6.0,2.0,-2.3,-9.0,60,33,19,0.00,40.00,10,5,22,0.00
2014-1-21,41.0,19.1,2.0,-5.0,-12.3,-18.0,61,28,9,0.00,40.00,7,3,10,0.00
2014-1-22,38.0,19.1,3.0,-6.0,-12.5,-21.0,41,24,13,0.00,40.00,9,4,11,0.00
2014-1-23,28.0,15.2,2.0,14.0,3.2,-8.0,82,59,46,0.00,40.00,8,5,12,0.00
2014-1-24,37.0,16.2,1.0,-1.0,-6.1,-14.0,78,41,14,0.00,40.00,7,4,16,0.00
2014-1-25,45.0,26.0,9.0,11.0,4.5,-5.0,68,41,24,0.00,40.00,8,5,16,0.00
2014-1-26,40.0,27.2,11.0,12.0,6.6,-1.0,71,43,27,0.00,40.00,12,6,27,0.00
2014-1-27,36.0,21.6,6.0,12.0,5.4,-2.0,77,51,32,0.00,40.00,20,10,35,0.00
2014-2-2,23.0,20.7,10.0,11.0,9.0,4.0,77,60,54,0.00,40.00,4,3,6,0.17
2014-2-3,27.0,15.7,9.0,11.0,6.5,3.0,86,67,46,0.00,40.00,7,4,10,0.02
2014-2-4,20.0,12.4,1.0,8.0,3.2,-3.0,88,68,40,0.00,40.00,8,5,19,0.01
2014-2-5,19.0,10.5,6.0,-1.0,-2.2,-7.0,70,57,32,0.00,40.00,9,6,20,0.00
2014-2-6,27.0,15.0,2.0,6.0,1.9,-5.0,77,57,38,0.00,40.00,11,6,22,0.00
2014-2-7,29.0,16.7,5.0,8.0,4.9,0.0,80,61,32,0.00,40.00,14,7,29,0.00
2014-2-8,30.0,21.7,14.0,20.0,14.2,5.0,89,73,56,0.00,40.00,11,7,24,0.07
2014-2-9,39.0,29.4,24.0,27.0,21.8,17.0,97,75,42,0.00,40.00,10,7,17,0.01
2014-2-10,35.0,25.4,17.0,24.0,17.8,7.0,93,74,55,0.00,40.00,11,6,23,0.04
2014-2-11,20.0,9.5,2.0,5.0,-0.8,-7.0,86,66,30,0.00,40.00,7,4,11,0.03
2014-2-12,40.0,21.8,3.0,20.0,5.6,-8.0,66,50,32,0.00,40.00,14,6,24,0.00
2014-2-13,42.0,33.0,26.0,21.0,17.9,12.0,68,55,33,0.00,40.00,21,10,35,0.00
2014-2-14,43.0,34.5,26.0,22.0,20.4,19.0,85,58,41,0.00,40.00,12,9,25,0.00
2014-2-15,50.0,38.9,20.0,19.0,11.5,6.0,64,35,17,0.00,40.00,14,8,28,0.00
2014-2-16,42.0,32.3,22.0,19.0,12.6,2.0,65,44,34,0.00,40.00,21,10,41,0.00
2014-2-17,45.0,28.9,10.0,3.0,-3.6,-12.0,49,26,11,0.00,40.00,13,7,39,0.00
2014-2-18,45.0,33.2,21.0,9.0,0.6,-10.0,40,26,9,0.00,40.00,11,6,19,0.00
2014-2-19,38.0,28.3,13.0,23.0,10.9,4.0,92,51,31,0.00,40.00,17,8,32,0.00
2014-2-20,20.0,10.9,3.0,6.0,-10.3,-19.0,75,41,19,0.00,40.00,20,12,41,0.00
2014-2-21,32.0,16.6,8.0,5.0,-7.0,-20.0,51,35,16,0.00,40.00,13,5,23,0.00
2014-3-17,42.0,34.5,14.0,12.0,3.3,-2.0,48,28,16,0.00,40.00,18,12,36,0.00
2014-3-18,28.0,18.8,8.0,8.0,-0.4,-7.0,70,44,27,0.00,40.00,14,10,29,0.00
2014-3-19,39.0,22.4,1.0,7.0,1.0,-8.0,83,45,13,0.00,40.00,8,5,19,0.00
2014-3-20,46.0,32.2,9.0,-1.0,-6.1,-99.9,44,21,11,0.00,40.00,13,8,26,0.00
2014-3-21,47.0,32.7,12.0,9.0,-4.0,-99.9,39,21,14,0.00,40.00,14,5,28,0.00
2014-3-22,37.0,29.3,18.0,16.0,8.6,1.0,62,42,29,0.00,40.00,15,7,34,0.00
2014-3-23,39.0,26.3,7.0,10.0,2.8,-3.0,84,43,18,0.00,40.00,12,7,26,0.00
2014-4-20,52.0,39.5,31.0,29.0,24.6,18.0,86,58,29,0.00,40.00,11,6,23,0.01
2014-4-21,56.0,41.4,27.0,28.0,19.8,6.0,85,49,14,0.00,40.00,10,6,23,0.00
2014-4-22,49.0,43.4,27.0,32.0,24.9,18.0,71,49,35,0.00,40.00,16,9,41,0.00
2014-4-23,45.0,37.7,26.0,27.0,15.0,5.0,65,41,21,0.00,40.00,22,13,43,0.00
2014-4-24,49.0,35.1,21.0,7.0,1.3,-8.0,46,26,13,0.00,40.00,12,8,30,0.00
2014-4-25,50.0,41.6,22.0,12.0,4.9,-4.0,54,23,14,0.00,40.00,16,9,34,0.00
2014-4-26,42.0,35.1,30.0,28.0,19.1,12.0,92,56,29,0.00,40.00,18,10,37,0.01
2014-5-26,56.0,43.7,29.0,32.0,25.5,19.0,90,54,24,0.00,40.00,11,6,21,0.01
2014-5-27,65.0,50.0,30.0,31.0,24.8,19.0,81,42,18,0.00,40.00,14,7,28,0.00
2014-5-28,65.0,47.4,31.0,32.0,28.0,24.0,80,51,21,0.00,40.00,10,6,24,0.00
2014-5-29,61.0,47.6,39.0,41.0,34.8,29.0,95,63,29,0.00,40.00,16,7,27,0.13
2014-5-30,57.0,45.6,38.0,43.0,39.0,35.0,99,81,45,0.00,40.00,12,4,27,0.01
2014-5-31,64.0,49.5,32.0,36.0,27.4,16.0,94,52,19,0.00,40.00,17,8,33,0.01
2014-6-1,62.0,49.7,33.0,29.0,20.7,5.0,71,38,10,0.00,40.00,17,9,35,0.01
2014-7-24,76.0,60.0,51.0,46.0,40.6,35.0,84,52,24,0.00,40.00,12,6,23,0.03
2014-7-25,69.0,56.1,43.0,48.0,44.8,41.0,93,69,38,0.00,40.00,14,6,21,0.20
2014-7-26,71.0,54.0,42.0,48.0,43.0,38.0,96,71,30,0.00,40.00,14,5,26,0.02
2014-7-27,64.0,50.8,40.0,47.0,43.0,38.0,95,77,46,0.00,40.00,13,5,21,0.03
2014-7-28,65.0,52.5,45.0,49.0,44.9,40.0,97,78,43,0.00,40.00,6,4,15,0.49
2014-7-29,60.0,49.9,45.0,50.0,46.2,43.0,97,88,62,0.00,40.00,6,3,13,0.39
2014-7-30,64.0,51.5,37.0,50.0,44.4,36.0,98,79,42,0.00,40.00,11,5,17,0.27
2014-7-31,61.0,50.7,46.0,49.0,44.1,41.0,97,82,55,0.00,40.00,13,5,18,0.08
2014-8-1,60.0,48.0,40.0,48.0,43.4,39.0,97,85,60,0.00,40.00,15,5,21,0.44
2014-8-2,62.0,48.7,38.0,47.0,42.7,37.0,98,82,58,0.00,40.00,11,5,18,0.01
2014-8-3,64.0,53.1,40.0,46.0,42.1,37.0,96,70,38,0.00,40.00,12,6,19,0.01
2014-8-4,62.0,50.7,43.0,48.0,44.2,40.0,97,80,57,0.00,40.00,16,6,24,0.07
2014-8-5,65.0,53.2,40.0,47.0,40.7,36.0,98,67,34,0.00,40.00,11,6,19,0.14
2014-8-6,67.0,52.2,36.0,38.0,32.0,26.0,88,54,23,0.00,40.00,9,6,16,0.01
2014-10-25,62.0,45.8,26.0,26.0,18.6,11.0,79,40,14,0.00,40.00,12,7,22,0.00
2014-10-26,52.0,45.4,39.0,30.0,25.1,21.0,65,46,30,0.00,40.00,16,9,32,0.00
2014-10-27,47.0,39.4,27.0,22.0,15.1,2.0,70,39,17,0.00,40.00,16,8,32,0.00
2014-10-28,53.0,35.9,20.0,9.0,2.1,-15.0,50,28,6,0.00,40.00,9,5,15,0.00
2014-10-29,55.0,39.0,24.0,10.0,4.6,-6.0,48,27,8,0.00,40.00,10,4,21,0.00
2014-10-30,59.0,45.2,28.0,17.0,9.9,3.0,53,26,10,0.00,40.00,10,6,21,0.00
2014-10-31,51.0,41.6,23.0,23.0,17.2,13.0,65,39,25,0.00,40.00,7,5,17,0.00
2014-11-7,54.0,40.7,24.0,19.0,13.4,9.0,76,36,18,0.00,40.00,9,5,21,0.00
2014-11-8,55.0,37.8,19.0,19.0,14.2,6.0,85,44,14,0.00,40.00,8,5,13,0.00
2014-11-9,54.0,40.1,21.0,19.0,9.8,-1.0,63,32,13,0.00,40.00,8,5,14,0.00
2014-11-10,46.0,35.7,26.0,24.0,14.4,-3.0,78,43,25,0.00,40.00,17,10,34,0.00
2014-11-11,41.0,33.0,14.0,17.0,6.2,-15.0,51,33,15,0.00,40.00,16,10,33,0.00
2014-11-12,39.0,32.2,29.0,20.0,17.5,13.0,66,53,45,0.00,40.00,16,11,32,0.00
2014-11-13,40.0,28.7,24.0,25.0,19.8,9.0,97,72,43,0.00,40.00,12,8,28,0.01
2014-11-18,35.0,17.8,-2.0,-3.0,-8.5,-15.0,61,33,18,0.00,40.00,9,4,22,0.01
2014-11-19,46.0,25.2,11.0,7.0,-4.9,-16.0,56,29,10,0.00,40.00,9,4,11,0.00
2014-11-20,39.0,20.2,10.0,9.0,1.4,-6.0,76,46,17,0.00,40.00,9,5,10,0.00
2014-11-21,40.0,19.2,4.0,14.0,6.1,-1.0,86,62,23,0.00,40.00,8,5,11,0.00
2014-11-22,44.0,24.5,6.0,22.0,11.4,2.0,94,62,26,0.00,40.00,11,5,22,0.00
2014-11-23,25.0,17.4,9.0,21.0,9.2,-2.0,94,71,39,0.00,40.00,16,9,31,0.03
2014-11-24,18.0,9.9,4.0,6.0,-1.4,-8.0,85,61,46,0.00,40.00,13,7,29,0.02
2014-11-25,32.0,19.5,5.0,18.0,6.3,-11.0,70,56,39,0.00,40.00,19,9,45,0.00
2014-11-26,42.0,31.5,17.0,18.0,15.2,7.0,75,53,33,0.00,40.00,16,9,31,0.00
2014-11-27,51.0,40.0,26.0,9.0,5.8,4.0,41,25,18,0.00,40.00,13,6,23,0.00
2014-11-28,51.0,36.4,22.0,8.0,1.8,-4.0,37,24,11,0.00,40.00,11,6,23,0.00
2014-11-29,45.0,35.2,25.0,4.0,2.1,0.0,36,25,18,0.00,40.00,15,9,28,0.00
2014-11-30,41.0,31.3,20.0,10.0,5.2,2.0,62,34,22,0.00,40.00,8,5,18,0.00
2014-12-1,40.0,28.9,19.0,14.0,12.4,8.0,69,51,29,0.00,40.00,9,6,19,0.00
2014-12-2,43.0,29.4,12.0,12.0,5.3,0.0,77,40,16,0.00,40.00,7,4,9,0.00
2014-12-3,43.0,31.8,23.0,29.0,19.2,3.0,77,60,32,0.00,40.00,7,4,16,0.00
2014-12-6,33.0,27.1,17.0,24.0,19.9,15.0,93,75,62,0.00,40.00,7,4,14,0.00
2014-12-7,42.0,28.7,13.0,20.0,14.2,2.0,89,59,28,0.00,40.00,8,5,14,0.00
2014-12-8,52.0,33.6,12.0,7.0,3.3,-3.0,58,30,16,0.00,40.00,7,4,9,0.00
2014-12-9,49.0,35.7,11.0,6.0,1.8,-7.0,59,26,10,0.00,40.00,7,4,9,0.00
2014-12-10,49.0,33.4,13.0,4.0,2.0,0.0,58,24,15,0.00,40.00,6,4,9,0.00
2014-12-11,47.0,32.8,12.0,13.0,7.6,0.0,70,35,22,0.00,40.00,8,4,12,0.00
2014-12-12,42.0,33.3,13.0,20.0,16.8,8.0,81,52,35,0.00,40.00,7,3,8,0.00
2014-12-13,39.0,29.0,21.0,26.0,20.4,12.0,96,71,50,0.00,40.00,12,6,19,0.00
2014-12-14,29.0,20.4,14.0,21.0,11.5,5.0,94,69,47,0.00,40.00,14,8,29,0.03
2014-12-15,31.0,13.5,7.0,6.0,-1.6,-13.0,79,56,14,0.00,40.00,11,6,21,0.02
2014-12-16,37.0,23.3,6.0,19.0,8.1,-8.0,83,52,41,0.00,40.00,13,6,25,0.00
2014-12-17,27.0,18.7,9.0,19.0,14.2,4.0,93,83,71,0.00,40.00,7,3,9,0.00
2014-12-18,32.0,17.4,5.0,17.0,12.1,0.0,90,81,51,0.00,40.00,5,3,12,0.03
2014-12-19,29.0,12.8,1.0,9.0,1.8,-4.0,84,64,32,0.00,40.00,7,3,11,0.03
2014-12-20,37.0,21.4,5.0,15.0,8.7,-3.0,76,58,35,0.00,40.00,8,4,18,0.03
2014-12-21,28.0,23.7,12.0,25.0,19.5,8.0,97,84,52,0.00,40.00,15,8,28,0.00
2014-12-22,26.0,20.5,9.0,25.0,17.9,3.0,97,89,73,0.00,40.00,16,9,39,0.00
2014-12-23,17.0,8.6,3.0,4.0,-3.6,-12.0,83,58,36,0.00,40.00,15,7,39,0.00
2014-12-24,39.0,19.1,4.0,12.0,-1.0,-19.0,64,42,24,0.00,40.00,8,5,15,0.17
2014-12-25,23.0,16.9,11.0,14.0,10.0,5.0,87,74,55,0.00,40.00,10,5,18,0.01
2014-12-26,19.0,8.4,-2.0,11.0,3.6,-6.0,87,80,69,0.00,40.00,7,4,12,0.01
2014-12-27,22.0,1.2,-13.0,2.0,-8.9,-20.0,79,64,38,0.00,40.00,8,4,10,0.05
2014-12-28,27.0,6.9,-10.0,5.0,-6.2,-17.0,74,57,37,0.00,40.00,13,6,23,0.02
2014-12-29,20.0,9.7,-7.0,11.0,0.6,-13.0,85,68,39,0.00,40.00,12,5,23,0.02
2014-12-30,17.0,0.3,-13.0,7.0,-6.1,-20.0,82,74,63,0.00,40.00,7,4,11,0.00
2014-12-31,21.0,5.7,-10.0,7.0,-2.6,-16.0,86,69,52,0.00,40.00,8,4,15,0.01
2015-1-1,24.0,10.9,-1.0,14.0,3.8,-6.0,86,74,43,0.00,40.00,7,4,12,0.07
2015-1-2,30.0,6.2,-10.0,8.0,-4.8,-16.0,86,62,26,0.00,40.00,6,4,11,0.01